Red Creek, New York
Current Conditions -  °F | °C
As of 4:54 AM on Friday 24 Oct 2014 (Local Time) from KFZY Reporting Station
Light Rain Light Rain  
Wind Chill: 48°   Ceiling: 2500
Heat Index: 48°   Visibility: 9mi
Dew Point: 45°   Wind: 0mph
Humidity: 89%   Direction: NA
Pressure: 29.96"   Gusts: NA
Location:  43.25°N, 76.72°W
Report Text: KFZY 240854Z AUTO 00000KT 9SM -RA SCT018 BKN025 OVC075 09/07 A2996 RMK AO2 RAB14 SLP145 P0001 60001 T00890072 51005
Loading
Personal Weather Stations






























Interactive Weather Map
Tropical Storm Tracking
New forecast layout! Learn more

10-Day Weather Forecast

Advertisements
Track Severe Weather on mobile